LGRP/RHO METAR and TAF weather

Enter ICAO airport designator
Station Type Date Time Source
LGRP METAR 2019/06/19 00:50 UTC NOAA

LGRP 190050Z 22007KT 9999 FEW020 24/19 Q1008 NOSIG


Station Type Date Time Source
LGRP Decoded METAR 2019/06/19 00:50 UTC NOAA

Rhodes Airport , Greece (LGRP) 36-24N 028-05E 11M
Jun 18, 2019 - 08:50 PM EDT / 2019.06.19 0050 UTC
Wind: from the SW (220 degrees) at 8 MPH (7 KT):0
Visibility: greater than 7 mile(s):0
Sky conditions: mostly clear
Temperature: 75 F (24 C)
Dew Point: 66 F (19 C)
Relative Humidity: 73%
Pressure (altimeter): 29.77 in. Hg (1008 hPa)
ob: LGRP 190050Z 22007KT 9999 FEW020 24/19 Q1008 NOSIG
cycle: 1

Station Type Date Time Source
LGRP TAF 2019/06/18 18:12 UTC NOAA

TAF LGRP 181700Z 1818/1918 26010KT 9999 FEW020 PROB30
TEMPO 1912/1916 5000 TSRA FEW018CB BKN025

Example: see airport list